Time;durP1;ratioP1;P1;durP2;ratioP2;P2;SDS_P1;SDS_P2;PMS_P1;PMS_P2;Temp;Humidity;BMP_temperature;BMP_pressure;BME280_temperature;BME280_humidity;BME280_pressure;Samples;Min_cycle;Max_cycle;Signal;HPM_P1;HPM_P2
2021/01/10 00:01:20;;;;;;;1.98;0.93;;;0.90;55.00;;;;;;5056316;28;20113;-68
2021/01/10 00:03:46;;;;;;;2.15;1.45;;;1.00;52.00;;;;;;5058699;28;20036;-68
2021/01/10 00:06:11;;;;;;;1.95;1.40;;;1.10;54.10;;;;;;5060075;28;20021;-68
2021/01/10 00:08:37;;;;;;;1.50;0.95;;;1.10;53.60;;;;;;5059977;28;20112;-69
2021/01/10 00:11:03;;;;;;;1.85;1.10;;;1.10;52.00;;;;;;5060153;28;20025;-68
2021/01/10 00:13:31;;;;;;;3.33;2.20;;;1.20;51.70;;;;;;5059920;28;20083;-69
2021/01/10 00:15:57;;;;;;;2.88;1.45;;;1.20;54.00;;;;;;5059873;28;20240;-69
2021/01/10 00:18:23;;;;;;;2.17;1.30;;;1.00;53.60;;;;;;5060036;28;20028;-68
2021/01/10 00:20:48;;;;;;;1.98;1.30;;;0.90;55.00;;;;;;5059774;28;20033;-68
2021/01/10 00:23:14;;;;;;;2.05;1.42;;;0.80;55.00;;;;;;5059771;28;20063;-69
2021/01/10 00:25:40;;;;;;;2.33;1.35;;;0.80;54.50;;;;;;5059515;28;20040;-69
2021/01/10 00:28:06;;;;;;;1.88;1.38;;;0.80;54.00;;;;;;5059641;28;20325;-68
2021/01/10 00:30:32;;;;;;;2.10;1.00;;;0.90;53.50;;;;;;5059509;28;20025;-69
2021/01/10 00:32:58;;;;;;;1.52;1.10;;;1.00;53.80;;;;;;5059707;28;20024;-68
2021/01/10 00:35:25;;;;;;;1.90;1.45;;;1.00;53.30;;;;;;5059477;28;20359;-68
2021/01/10 00:37:53;;;;;;;3.58;1.20;;;1.00;53.70;;;;;;5058405;28;20029;-69
2021/01/10 00:40:19;;;;;;;1.70;1.15;;;1.00;54.00;;;;;;5059434;28;20025;-69
2021/01/10 00:42:46;;;;;;;1.73;1.00;;;0.90;54.00;;;;;;5059360;28;20413;-68
2021/01/10 00:45:12;;;;;;;2.05;1.10;;;0.90;53.70;;;;;;5059294;28;20051;-68
2021/01/10 00:47:39;;;;;;;1.30;0.80;;;1.00;53.60;;;;;;5059262;28;20115;-68
2021/01/10 00:50:06;;;;;;;1.85;1.15;;;1.00;53.50;;;;;;5059191;28;20021;-68
2021/01/10 00:52:32;;;;;;;1.95;1.10;;;1.10;53.10;;;;;;5059635;28;20290;-69
2021/01/10 00:54:58;;;;;;;1.52;1.15;;;1.20;52.50;;;;;;5059248;28;20034;-68
2021/01/10 00:57:23;;;;;;;1.10;0.70;;;1.20;52.20;;;;;;5059118;28;20033;-69
2021/01/10 00:59:49;;;;;;;1.30;0.90;;;1.30;51.80;;;;;;5059047;28;20021;-68
2021/01/10 01:02:15;;;;;;;1.30;0.73;;;1.30;51.20;;;;;;5059025;28;20024;-69
2021/01/10 01:04:40;;;;;;;1.10;0.70;;;1.40;49.40;;;;;;5058944;28;20052;-68
2021/01/10 01:07:06;;;;;;;1.15;0.90;;;1.60;49.60;;;;;;5059157;28;20025;-69
2021/01/10 01:09:32;;;;;;;3.38;1.05;;;1.60;50.80;;;;;;5058832;28;20024;-69
2021/01/10 01:11:59;;;;;;;1.35;0.80;;;1.50;50.60;;;;;;5058951;28;20082;-68
2021/01/10 01:14:25;;;;;;;1.13;0.70;;;1.50;50.70;;;;;;5057501;28;20025;-69
2021/01/10 01:16:50;;;;;;;2.00;0.80;;;1.50;50.80;;;;;;5058731;28;20028;-69
2021/01/10 01:19:16;;;;;;;0.98;0.60;;;1.50;50.80;;;;;;5058728;28;20073;-68
2021/01/10 01:21:42;;;;;;;1.33;0.68;;;1.60;49.70;;;;;;5057615;28;20067;-69
2021/01/10 01:24:09;;;;;;;0.80;0.60;;;1.50;51.00;;;;;;5057685;28;20025;-69
2021/01/10 01:26:34;;;;;;;1.23;0.70;;;1.50;52.40;;;;;;5058539;28;20333;-68
2021/01/10 01:29:00;;;;;;;1.23;1.08;;;1.40;50.60;;;;;;5058504;28;20021;-69
2021/01/10 01:31:27;;;;;;;0.93;0.60;;;1.40;49.80;;;;;;5057361;28;20067;-68
2021/01/10 01:33:54;;;;;;;1.63;0.75;;;1.40;51.70;;;;;;5058353;28;20024;-68
2021/01/10 01:36:28;;;;;;;1.85;0.70;;;1.40;51.00;;;;;;5058612;28;20021;-69
2021/01/10 01:38:57;;;;;;;1.10;0.68;;;1.40;50.60;;;;;;5058591;28;20467;-68
2021/01/10 01:41:24;;;;;;;2.40;0.85;;;1.40;51.90;;;;;;5058303;28;20025;-68
2021/01/10 01:43:51;;;;;;;1.30;0.90;;;1.40;51.80;;;;;;5058246;28;20029;-69
2021/01/10 01:46:39;;;;;;;1.17;0.98;;;1.40;52.30;;;;;;5058207;28;20039;-68
2021/01/10 01:49:07;;;;;;;1.55;1.00;;;1.40;51.10;;;;;;5058061;28;20037;-69
2021/01/10 01:51:34;;;;;;;2.45;1.20;;;1.50;50.30;;;;;;5058287;28;20375;-69
2021/01/10 01:54:00;;;;;;;2.30;1.30;;;1.50;50.60;;;;;;5056975;28;20028;-68
2021/01/10 01:56:26;;;;;;;2.00;1.20;;;1.40;51.50;;;;;;5058433;28;20033;-69
2021/01/10 01:59:05;;;;;;;1.73;1.10;;;1.20;52.50;;;;;;5057987;28;20076;-68
2021/01/10 02:01:33;;;;;;;1.92;1.08;;;1.00;52.30;;;;;;5058042;28;20052;-69
2021/01/10 02:04:27;;;;;;;1.20;0.90;;;1.20;49.40;;;;;;5056779;28;20025;-68
2021/01/10 02:07:04;;;;;;;1.33;0.85;;;1.40;49.70;;;;;;5058074;28;20025;-68
2021/01/10 02:09:35;;;;;;;1.52;1.20;;;1.50;48.60;;;;;;5058013;28;20120;-69
2021/01/10 02:12:04;;;;;;;2.25;1.20;;;1.60;49.60;;;;;;5057908;28;20025;-69
2021/01/10 02:14:33;;;;;;;1.70;1.00;;;1.40;50.70;;;;;;5057607;28;20052;-69
2021/01/10 02:17:01;;;;;;;1.35;1.02;;;1.20;50.70;;;;;;5057587;28;20048;-69
2021/01/10 02:19:42;;;;;;;1.10;0.70;;;1.10;50.80;;;;;;5057460;28;20036;-69
2021/01/10 02:22:11;;;;;;;1.45;0.80;;;1.20;49.50;;;;;;5057814;28;20321;-69
2021/01/10 02:24:37;;;;;;;1.33;0.93;;;1.40;48.80;;;;;;5057507;28;20048;-68
2021/01/10 02:27:05;;;;;;;2.25;1.08;;;1.40;49.90;;;;;;5056734;28;20057;-68
2021/01/10 02:29:33;;;;;;;1.35;0.90;;;1.30;50.10;;;;;;5057279;28;20112;-68
2021/01/10 02:32:02;;;;;;;1.85;1.08;;;1.30;50.20;;;;;;5057219;28;20029;-69
2021/01/10 02:34:28;;;;;;;2.25;1.20;;;1.20;51.00;;;;;;5057308;28;20074;-69
2021/01/10 02:37:20;;;;;;;1.45;1.00;;;1.10;50.30;;;;;;5057507;28;20075;-68
2021/01/10 02:40:19;;;;;;;1.58;1.00;;;1.20;50.50;;;;;;5057407;28;20040;-69
2021/01/10 02:42:57;;;;;;;2.63;1.23;;;1.20;49.90;;;;;;5057220;28;20021;-69
2021/01/10 02:45:25;;;;;;;1.15;0.80;;;1.20;50.80;;;;;;5057306;28;20363;-69
2021/01/10 02:47:50;;;;;;;2.08;0.90;;;1.30;49.60;;;;;;5057050;28;20436;-68
2021/01/10 02:50:17;;;;;;;1.98;0.90;;;1.30;50.50;;;;;;5057159;28;20025;-69
2021/01/10 02:52:52;;;;;;;1.25;0.85;;;1.30;51.40;;;;;;5057024;28;20100;-69
2021/01/10 02:55:18;;;;;;;0.77;0.60;;;1.30;50.80;;;;;;5057249;28;20103;-69
2021/01/10 02:57:52;;;;;;;1.35;0.70;;;1.30;50.30;;;;;;5057191;28;20425;-69
2021/01/10 03:00:20;;;;;;;2.78;2.13;;;1.30;51.60;;;;;;5056822;28;20071;-69
2021/01/10 03:02:47;;;;;;;1.80;0.82;;;1.30;54.00;;;;;;5057074;28;20017;-69
2021/01/10 03:05:14;;;;;;;0.93;0.68;;;1.20;54.70;;;;;;5055710;28;20111;-69
2021/01/10 03:07:40;;;;;;;1.60;0.90;;;1.20;53.80;;;;;;5056733;28;20118;-69
2021/01/10 03:10:08;;;;;;;1.67;0.95;;;1.10;54.20;;;;;;5056639;28;20029;-68
2021/01/10 03:12:35;;;;;;;7.95;1.00;;;1.00;55.10;;;;;;5057070;28;20017;-69
2021/01/10 03:15:02;;;;;;;1.38;0.80;;;1.00;55.00;;;;;;5056886;28;20062;-69
2021/01/10 03:17:49;;;;;;;1.52;0.80;;;1.00;54.30;;;;;;5056926;28;20024;-69
2021/01/10 03:20:17;;;;;;;1.30;0.95;;;1.10;55.90;;;;;;5056741;28;20413;-69
2021/01/10 03:22:45;;;;;;;1.13;0.70;;;1.00;52.30;;;;;;5056876;28;20357;-69
2021/01/10 03:25:13;;;;;;;1.80;1.02;;;1.00;52.50;;;;;;5056412;28;20087;-69
2021/01/10 03:27:38;;;;;;;2.22;1.10;;;1.10;51.90;;;;;;5056959;28;20032;-69
2021/01/10 03:30:09;;;;;;;2.95;1.27;;;1.10;52.80;;;;;;5056708;28;20075;-68
2021/01/10 03:32:36;;;;;;;2.00;1.00;;;1.10;53.00;;;;;;5056940;28;20063;-69
2021/01/10 03:35:02;;;;;;;2.38;1.50;;;1.20;51.80;;;;;;5056435;28;20108;-69
2021/01/10 03:37:28;;;;;;;2.20;1.20;;;1.20;52.70;;;;;;5057036;28;20021;-68
2021/01/10 03:39:53;;;;;;;2.17;1.10;;;1.10;52.70;;;;;;5059517;28;20321;-69
2021/01/10 03:42:21;;;;;;;1.58;0.90;;;1.00;52.20;;;;;;5060633;28;20025;-69
2021/01/10 03:44:47;;;;;;;2.20;1.10;;;1.00;51.60;;;;;;5060562;28;20017;-69
2021/01/10 03:47:12;;;;;;;2.33;0.88;;;1.10;52.10;;;;;;5060468;28;20317;-69
2021/01/10 03:49:38;;;;;;;2.55;1.08;;;1.10;52.00;;;;;;5060582;28;20025;-69
2021/01/10 03:52:04;;;;;;;1.50;1.00;;;1.20;52.90;;;;;;5060261;28;20478;-69
2021/01/10 03:54:29;;;;;;;1.88;1.00;;;1.20;52.10;;;;;;5060401;28;20479;-69
2021/01/10 03:56:55;;;;;;;2.03;1.27;;;1.20;54.70;;;;;;5060514;28;20107;-69
2021/01/10 03:59:21;;;;;;;2.38;1.33;;;1.10;52.50;;;;;;5060193;28;20421;-68
2021/01/10 04:01:46;;;;;;;1.75;1.10;;;1.00;53.10;;;;;;5060104;28;20021;-68
2021/01/10 04:04:12;;;;;;;1.45;0.98;;;0.90;52.70;;;;;;5060002;28;20029;-69
2021/01/10 04:06:38;;;;;;;1.55;0.95;;;0.90;52.60;;;;;;5060232;28;20028;-69
2021/01/10 04:09:03;;;;;;;1.92;1.17;;;0.90;52.20;;;;;;5059974;28;20413;-69
2021/01/10 04:11:29;;;;;;;1.63;1.00;;;0.90;52.80;;;;;;5059875;28;20425;-69
2021/01/10 04:13:55;;;;;;;1.33;0.98;;;0.90;52.80;;;;;;5060220;28;20033;-69
2021/01/10 04:16:20;;;;;;;1.77;1.05;;;0.90;52.60;;;;;;5059926;28;20112;-68
2021/01/10 04:18:46;;;;;;;1.52;0.82;;;0.90;52.60;;;;;;5059866;28;20100;-68
2021/01/10 04:21:12;;;;;;;1.40;0.98;;;1.00;51.40;;;;;;5059785;28;20487;-68
2021/01/10 04:23:38;;;;;;;1.42;0.88;;;1.00;51.00;;;;;;5059961;28;20036;-68
2021/01/10 04:26:03;;;;;;;1.40;0.85;;;1.10;51.70;;;;;;5059455;28;20068;-69
2021/01/10 04:28:30;;;;;;;1.50;0.90;;;1.20;51.20;;;;;;5059672;28;20036;-69
2021/01/10 04:30:56;;;;;;;1.30;0.68;;;1.20;50.60;;;;;;5059776;28;20117;-69
2021/01/10 04:33:22;;;;;;;2.15;1.30;;;1.20;50.50;;;;;;5059536;28;20453;-69
2021/01/10 04:35:48;;;;;;;1.30;0.95;;;1.20;51.50;;;;;;5059775;28;20021;-69
2021/01/10 04:38:15;;;;;;;1.85;1.08;;;1.20;51.20;;;;;;5059501;28;20036;-69
2021/01/10 04:40:41;;;;;;;2.13;0.90;;;1.10;51.90;;;;;;5059442;28;20029;-69
2021/01/10 04:43:06;;;;;;;2.25;1.20;;;1.00;51.00;;;;;;5059415;28;20065;-68
2021/01/10 04:45:33;;;;;;;1.88;1.15;;;1.00;52.10;;;;;;5059317;28;20064;-69
2021/01/10 04:47:59;;;;;;;2.22;1.25;;;1.00;51.40;;;;;;5059159;28;20033;-69
2021/01/10 04:50:26;;;;;;;1.77;1.00;;;1.00;51.70;;;;;;5058767;28;20025;-69
2021/01/10 04:52:56;;;;;;;1.60;1.05;;;1.00;51.90;;;;;;5059464;28;20055;-69
2021/01/10 04:55:24;;;;;;;1.30;0.90;;;0.90;52.90;;;;;;5059039;28;20032;-69
2021/01/10 04:58:00;;;;;;;1.58;1.05;;;0.70;52.30;;;;;;5059104;28;20374;-69
2021/01/10 05:00:26;;;;;;;2.47;1.20;;;0.80;52.50;;;;;;5059128;28;20038;-69
2021/01/10 05:03:02;;;;;;;1.90;1.00;;;0.80;52.10;;;;;;5059028;28;20029;-69
2021/01/10 05:05:27;;;;;;;1.42;0.98;;;0.80;51.80;;;;;;5059243;28;20032;-69
2021/01/10 05:07:53;;;;;;;1.40;0.80;;;1.00;50.30;;;;;;5058912;28;20369;-69
2021/01/10 05:10:19;;;;;;;1.20;0.80;;;1.20;49.40;;;;;;5058762;28;20028;-68
2021/01/10 05:12:44;;;;;;;1.20;0.82;;;1.30;49.40;;;;;;5059221;28;20048;-68
2021/01/10 05:15:11;;;;;;;1.38;0.88;;;1.40;49.50;;;;;;5058815;28;20029;-68
2021/01/10 05:17:37;;;;;;;1.90;0.80;;;1.40;50.10;;;;;;5059056;28;20025;-69
2021/01/10 05:20:08;;;;;;;3.20;1.63;;;1.40;49.10;;;;;;5058713;28;20036;-68
2021/01/10 05:22:37;;;;;;;1.38;0.85;;;1.40;50.70;;;;;;5059020;28;20040;-69
2021/01/10 05:25:13;;;;;;;2.13;1.30;;;1.30;52.00;;;;;;5057294;28;20036;-69
2021/01/10 05:27:39;;;;;;;1.63;1.10;;;1.20;51.80;;;;;;5058862;28;20060;-68
2021/01/10 05:30:06;;;;;;;2.45;1.02;;;1.10;52.80;;;;;;5058533;28;20040;-69
2021/01/10 05:32:32;;;;;;;1.20;0.80;;;1.00;52.40;;;;;;5058455;28;20017;-69
2021/01/10 05:34:59;;;;;;;1.80;1.08;;;1.00;52.40;;;;;;5058482;28;20025;-68
2021/01/10 05:37:25;;;;;;;1.83;0.80;;;0.90;52.30;;;;;;5058393;28;20025;-68
2021/01/10 05:39:51;;;;;;;1.42;0.85;;;0.90;53.20;;;;;;5058474;28;20021;-68
2021/01/10 05:42:17;;;;;;;2.42;0.90;;;0.90;53.20;;;;;;5058303;28;20040;-69
2021/01/10 05:44:43;;;;;;;1.13;0.80;;;0.90;54.10;;;;;;5058170;28;20021;-68
2021/01/10 05:47:11;;;;;;;1.70;1.00;;;0.90;53.90;;;;;;5058165;28;20032;-69
2021/01/10 05:49:53;;;;;;;1.40;0.95;;;0.80;54.50;;;;;;5058113;28;20021;-69
2021/01/10 05:52:19;;;;;;;1.20;0.80;;;0.90;55.60;;;;;;5058355;28;20055;-69
2021/01/10 05:54:49;;;;;;;1.08;0.68;;;0.90;55.40;;;;;;5058047;28;20064;-68
2021/01/10 05:57:16;;;;;;;2.47;1.70;;;1.00;53.10;;;;;;5058033;28;20421;-68
2021/01/10 05:59:44;;;;;;;2.50;1.35;;;1.10;51.90;;;;;;5057930;28;20025;-69
2021/01/10 06:02:10;;;;;;;1.40;1.00;;;1.10;52.00;;;;;;5057278;28;20021;-68
2021/01/10 06:04:36;;;;;;;2.38;0.95;;;1.10;52.50;;;;;;5057885;28;20086;-68
2021/01/10 06:07:03;;;;;;;1.30;0.80;;;1.10;52.50;;;;;;5057840;28;20024;-68
2021/01/10 06:09:45;;;;;;;1.77;0.90;;;1.20;51.20;;;;;;5058009;28;20412;-69
2021/01/10 06:12:21;;;;;;;1.35;0.90;;;1.20;50.70;;;;;;5057761;28;20492;-68
2021/01/10 06:14:47;;;;;;;;;;;1.20;51.50;;;;;;5058183;28;20435;-68
2021/01/10 06:17:16;;;;;;;3.93;1.20;;;1.20;52.30;;;;;;5057648;28;19905;-68
2021/01/10 06:19:43;;;;;;;1.00;0.80;;;1.20;51.60;;;;;;5057565;28;20048;-69
2021/01/10 06:22:15;;;;;;;1.08;0.80;;;1.20;52.00;;;;;;5057526;28;20067;-69
2021/01/10 06:24:45;;;;;;;1.10;0.65;;;1.20;52.00;;;;;;5057638;28;20027;-69
2021/01/10 06:27:22;;;;;;;1.58;0.93;;;1.20;52.20;;;;;;5056212;28;20059;-69
2021/01/10 06:29:54;;;;;;;1.70;0.88;;;1.30;51.40;;;;;;5057353;28;20025;-69
2021/01/10 06:32:24;;;;;;;1.67;0.98;;;1.30;51.00;;;;;;5057644;28;20044;-69
2021/01/10 06:34:51;;;;;;;1.23;0.85;;;1.30;51.80;;;;;;5057211;28;20035;-68
2021/01/10 06:37:18;;;;;;;2.45;0.95;;;1.30;52.10;;;;;;5057548;28;20073;-69
2021/01/10 06:39:48;;;;;;;1.38;0.70;;;1.30;52.50;;;;;;5057408;28;20029;-69
2021/01/10 06:42:15;;;;;;;1.60;1.10;;;1.30;50.60;;;;;;5057143;28;20031;-69
2021/01/10 06:44:48;;;;;;;2.30;0.90;;;1.30;52.00;;;;;;5057367;28;20029;-69
2021/01/10 06:47:22;;;;;;;1.23;0.90;;;1.30;51.30;;;;;;5057114;28;20036;-69
2021/01/10 06:49:49;;;;;;;1.38;0.90;;;1.30;51.50;;;;;;5057049;28;20021;-69
2021/01/10 06:52:16;;;;;;;1.40;0.80;;;1.30;51.60;;;;;;5057263;28;20148;-69
2021/01/10 06:54:46;;;;;;;1.63;0.80;;;1.30;49.90;;;;;;5057047;28;20028;-68
2021/01/10 06:57:13;;;;;;;1.15;0.77;;;1.30;50.70;;;;;;5056891;28;20029;-69
2021/01/10 07:00:14;;;;;;;2.15;0.77;;;1.20;50.90;;;;;;5056991;28;20492;-69
2021/01/10 07:03:05;;;;;;;1.77;1.02;;;1.30;52.00;;;;;;5055311;28;20058;-69
2021/01/10 07:05:56;;;;;;;1.27;0.73;;;1.30;50.10;;;;;;5047509;28;20025;-69
2021/01/10 07:08:33;;;;;;;0.90;0.60;;;1.30;50.80;;;;;;5056701;28;20298;-68
2021/01/10 07:11:22;;;;;;;3.33;1.00;;;1.30;53.40;;;;;;5056627;28;20025;-68
2021/01/10 07:13:51;;;;;;;1.35;0.90;;;1.30;51.00;;;;;;5056171;28;20371;-68
2021/01/10 07:16:19;;;;;;;1.63;1.00;;;1.20;51.70;;;;;;5056650;28;20028;-68
2021/01/10 07:19:06;;;;;;;1.40;0.85;;;1.10;51.90;;;;;;5056657;28;20168;-68
2021/01/10 07:21:46;;;;;;;1.40;0.80;;;1.10;51.80;;;;;;5056889;28;20060;-68
2021/01/10 07:24:12;;;;;;;1.58;0.90;;;1.20;51.70;;;;;;5056811;28;20029;-69
2021/01/10 07:26:42;;;;;;;1.65;0.73;;;1.20;52.10;;;;;;5056318;28;20053;-68
2021/01/10 07:29:27;;;;;;;1.70;0.98;;;1.20;53.00;;;;;;5056520;28;20044;-69
2021/01/10 07:32:04;;;;;;;1.52;0.85;;;1.30;52.30;;;;;;5056351;28;20025;-69
2021/01/10 07:34:31;;;;;;;2.10;1.45;;;1.30;51.40;;;;;;5056722;28;20043;-68
2021/01/10 07:37:05;;;;;;;2.17;1.20;;;1.40;50.90;;;;;;5056473;28;20013;-69
2021/01/10 07:39:37;;;;;;;2.00;1.27;;;1.40;51.70;;;;;;5056721;28;20459;-68
2021/01/10 07:42:08;;;;;;;2.35;1.38;;;1.40;52.10;;;;;;5056597;28;20025;-68
2021/01/10 07:44:53;;;;;;;1.27;0.85;;;1.40;55.30;;;;;;5056609;28;20029;-68
2021/01/10 07:47:40;;;;;;;3.25;1.35;;;1.30;55.20;;;;;;5056317;28;20025;-68
2021/01/10 07:50:16;;;;;;;2.97;1.20;;;1.40;52.00;;;;;;5056163;28;20043;-69
2021/01/10 07:52:41;;;;;;;2.38;1.70;;;1.40;53.00;;;;;;5056449;28;20067;-68
2021/01/10 07:55:18;;;;;;;1.98;1.30;;;1.30;53.10;;;;;;5056538;28;20393;-68
2021/01/10 07:57:44;;;;;;;;;;;1.20;52.50;;;;;;5056597;28;20074;-69
2021/01/10 08:00:11;;;;;;;0.95;0.65;;;1.20;52.30;;;;;;5056375;28;20216;-68
2021/01/10 08:03:05;;;;;;;0.80;0.60;;;1.30;52.50;;;;;;5055372;28;20329;-68
2021/01/10 08:05:39;;;;;;;1.13;0.90;;;1.30;53.40;;;;;;5056037;28;20032;-69
2021/01/10 08:08:16;;;;;;;1.23;0.80;;;1.30;51.60;;;;;;5056295;28;20061;-69
2021/01/10 08:10:46;;;;;;;1.63;0.95;;;1.40;49.80;;;;;;5056423;28;20311;-68
2021/01/10 08:13:31;;;;;;;3.05;1.10;;;1.50;53.00;;;;;;5056137;28;20074;-68
2021/01/10 08:16:07;;;;;;;3.42;0.95;;;1.60;51.70;;;;;;5056277;28;20048;-68
2021/01/10 08:18:41;;;;;;;1.65;1.00;;;1.60;54.30;;;;;;5056059;28;20104;-69
2021/01/10 08:21:15;;;;;;;1.67;1.13;;;1.70;52.90;;;;;;5056385;28;20101;-68
2021/01/10 08:23:43;;;;;;;1.42;0.80;;;1.70;52.90;;;;;;5056721;28;20025;-68
2021/01/10 08:26:14;;;;;;;1.15;0.77;;;1.70;53.40;;;;;;5059499;28;20044;-69
2021/01/10 08:28:42;;;;;;;3.72;1.73;;;1.70;52.10;;;;;;5059892;28;20033;-68
2021/01/10 08:31:12;;;;;;;2.20;1.52;;;1.80;51.40;;;;;;5059549;28;20112;-69
2021/01/10 08:33:39;;;;;;;1.38;1.02;;;1.80;53.70;;;;;;5059592;28;20082;-69
2021/01/10 08:36:09;;;;;;;1.67;1.00;;;1.80;53.10;;;;;;5059509;28;20021;-69
2021/01/10 08:38:49;;;;;;;1.65;1.38;;;1.80;52.50;;;;;;5058435;28;20036;-69
2021/01/10 08:41:31;;;;;;;2.97;1.23;;;1.80;51.40;;;;;;5059522;28;20135;-69
2021/01/10 08:44:00;;;;;;;1.67;1.00;;;1.70;52.10;;;;;;5058404;28;20071;-69
2021/01/10 08:46:28;;;;;;;1.70;1.00;;;1.70;51.80;;;;;;5059469;28;20064;-68
2021/01/10 08:48:54;;;;;;;1.45;1.05;;;1.70;52.70;;;;;;5059327;28;20021;-68
2021/01/10 08:51:36;;;;;;;1.80;0.93;;;1.70;53.40;;;;;;5059231;28;20032;-68
2021/01/10 08:54:23;;;;;;;2.05;1.00;;;1.80;53.40;;;;;;5059175;28;20029;-68
2021/01/10 08:56:54;;;;;;;1.23;0.90;;;1.80;53.40;;;;;;5059641;28;20025;-68
2021/01/10 08:59:20;;;;;;;1.17;0.80;;;1.90;52.20;;;;;;5059381;28;20032;-68
2021/01/10 09:01:47;;;;;;;1.80;1.05;;;1.90;53.20;;;;;;5059365;28;20427;-69
2021/01/10 09:04:14;;;;;;;1.88;1.40;;;2.00;52.60;;;;;;5058974;28;20325;-68
2021/01/10 09:06:58;;;;;;;2.17;1.25;;;2.00;52.70;;;;;;5059249;28;20057;-69
2021/01/10 09:09:42;;;;;;;5.85;3.70;;;2.10;51.20;;;;;;5059109;28;20033;-69
2021/01/10 09:12:08;;;;;;;2.20;1.40;;;2.30;51.70;;;;;;5059403;28;20079;-68
2021/01/10 09:14:42;;;;;;;1.95;1.23;;;2.30;52.80;;;;;;5058924;28;20025;-68
2021/01/10 09:17:12;;;;;;;1.58;0.95;;;2.30;53.20;;;;;;5058938;28;20455;-69
2021/01/10 09:19:38;;;;;;;1.80;1.27;;;2.30;51.90;;;;;;5058724;28;20033;-69
2021/01/10 09:22:04;;;;;;;1.75;1.30;;;2.50;52.20;;;;;;5059086;28;20036;-69
2021/01/10 09:24:32;;;;;;;1.60;1.02;;;2.50;53.90;;;;;;5058717;28;20029;-68
2021/01/10 09:27:12;;;;;;;1.83;1.08;;;2.50;53.90;;;;;;5058478;28;20048;-68
2021/01/10 09:29:38;;;;;;;1.33;0.93;;;2.50;53.50;;;;;;5058803;28;20031;-68
2021/01/10 09:32:05;;;;;;;2.28;1.30;;;2.60;52.70;;;;;;5058704;28;20312;-68
2021/01/10 09:34:31;;;;;;;3.20;1.20;;;2.60;53.30;;;;;;5058578;28;20028;-69
2021/01/10 09:37:07;;;;;;;1.98;0.90;;;2.60;52.80;;;;;;5057369;28;20021;-69
2021/01/10 09:39:46;;;;;;;1.52;1.02;;;2.70;50.40;;;;;;5058624;28;20426;-69
2021/01/10 09:42:12;;;;;;;1.45;0.95;;;2.70;50.80;;;;;;5058562;28;20051;-69
2021/01/10 09:44:39;;;;;;;1.20;1.00;;;2.60;50.30;;;;;;5058245;28;20053;-69
2021/01/10 09:47:05;;;;;;;1.98;1.13;;;2.50;51.40;;;;;;5058272;28;20025;-68
2021/01/10 09:49:31;;;;;;;1.60;1.10;;;2.50;50.40;;;;;;5058283;28;20314;-69
2021/01/10 09:52:21;;;;;;;1.35;0.95;;;2.50;53.40;;;;;;5058041;28;20104;-69
2021/01/10 09:54:56;;;;;;;1.63;0.98;;;2.50;54.30;;;;;;5058032;28;20329;-69
2021/01/10 09:57:22;;;;;;;1.40;1.13;;;2.50;52.30;;;;;;5058081;28;20028;-69
2021/01/10 09:59:54;;;;;;;2.17;1.27;;;2.50;53.00;;;;;;5057976;28;20079;-69
2021/01/10 10:02:23;;;;;;;1.83;1.55;;;2.50;53.50;;;;;;5057981;28;20354;-68
2021/01/10 10:04:54;;;;;;;1.77;1.30;;;2.50;51.10;;;;;;5057903;28;20021;-69
2021/01/10 10:07:47;;;;;;;2.85;1.45;;;2.50;52.20;;;;;;5057734;28;20294;-69
2021/01/10 10:10:32;;;;;;;2.25;1.75;;;2.50;51.40;;;;;;5045640;28;20048;-69
2021/01/10 10:12:58;;;;;;;1.60;0.90;;;2.50;53.20;;;;;;5038010;28;20322;-69
2021/01/10 10:15:40;;;;;;;5.72;2.30;;;2.50;53.90;;;;;;5037965;28;20030;-68
2021/01/10 10:18:07;;;;;;;6.82;2.67;;;2.50;52.90;;;;;;5037774;28;20414;-68
2021/01/10 10:20:33;;;;;;;5.63;2.15;;;2.60;50.30;;;;;;5037644;28;20145;-69
2021/01/10 10:23:09;;;;;;;3.05;1.60;;;2.60;52.40;;;;;;5037860;28;20030;-69
2021/01/10 10:25:35;;;;;;;1.70;0.90;;;2.60;54.60;;;;;;5037472;28;20042;-69
2021/01/10 10:28:02;;;;;;;1.90;1.10;;;2.60;50.90;;;;;;5038094;28;20033;-68
2021/01/10 10:30:28;;;;;;;1.55;1.00;;;2.70;52.40;;;;;;5037340;28;20029;-69
2021/01/10 10:32:55;;;;;;;1.40;0.90;;;2.70;50.50;;;;;;5037390;28;20050;-69
2021/01/10 10:35:23;;;;;;;2.63;1.45;;;2.70;49.20;;;;;;5036259;28;20401;-69
2021/01/10 10:37:52;;;;;;;1.08;0.85;;;2.70;48.40;;;;;;5037349;28;20025;-69
2021/01/10 10:40:18;;;;;;;1.52;0.90;;;2.70;49.10;;;;;;5037087;28;20030;-68
2021/01/10 10:42:45;;;;;;;2.17;1.23;;;2.70;49.50;;;;;;5037409;28;20025;-69
2021/01/10 10:45:11;;;;;;;1.63;1.23;;;2.70;49.60;;;;;;5037453;28;20109;-69
2021/01/10 10:47:37;;;;;;;1.83;1.10;;;2.80;51.10;;;;;;5036751;28;20025;-69
2021/01/10 10:50:05;;;;;;;1.63;1.02;;;2.90;52.60;;;;;;5037155;28;20032;-69
2021/01/10 10:52:30;;;;;;;1.48;0.95;;;2.90;53.70;;;;;;5035987;28;20029;-69
2021/01/10 10:54:56;;;;;;;1.83;1.17;;;3.00;50.20;;;;;;5037069;28;20030;-69
2021/01/10 10:57:22;;;;;;;1.35;0.98;;;3.00;49.90;;;;;;5037038;28;20057;-69
2021/01/10 10:59:47;;;;;;;3.78;1.33;;;2.90;50.30;;;;;;5037233;28;20029;-69
2021/01/10 11:02:15;;;;;;;2.65;1.17;;;3.00;51.00;;;;;;5037244;28;20471;-68
2021/01/10 11:04:44;;;;;;;1.90;1.33;;;3.00;50.10;;;;;;5036876;28;20041;-68
2021/01/10 11:07:10;;;;;;;2.13;1.30;;;3.00;49.60;;;;;;5036913;28;20025;-69
2021/01/10 11:09:36;;;;;;;1.95;1.40;;;2.90;51.40;;;;;;5036876;28;20029;-68
2021/01/10 11:12:02;;;;;;;2.20;1.45;;;2.90;51.20;;;;;;5036761;28;20364;-69
2021/01/10 11:14:28;;;;;;;2.20;1.40;;;2.90;49.80;;;;;;5036760;28;20045;-69
2021/01/10 11:16:54;;;;;;;3.38;1.80;;;2.80;50.10;;;;;;5037025;28;20025;-68
2021/01/10 11:19:22;;;;;;;2.72;1.77;;;2.80;51.80;;;;;;5036876;28;20406;-69
2021/01/10 11:21:51;;;;;;;3.38;1.92;;;2.80;51.70;;;;;;5036718;28;20317;-69
2021/01/10 11:24:17;;;;;;;2.45;1.63;;;2.70;52.10;;;;;;5036788;28;20083;-69
2021/01/10 11:26:44;;;;;;;3.42;1.90;;;2.70;51.80;;;;;;5036493;28;20053;-69
2021/01/10 11:29:11;;;;;;;2.45;1.83;;;2.60;52.90;;;;;;5036914;28;20371;-69
2021/01/10 11:31:38;;;;;;;3.25;2.30;;;2.60;54.40;;;;;;5036537;28;20029;-69
2021/01/10 11:34:09;;;;;;;3.30;2.22;;;2.60;56.10;;;;;;5036865;28;20329;-69
2021/01/10 11:36:39;;;;;;;3.58;2.33;;;2.70;54.50;;;;;;5036894;28;20460;-68
2021/01/10 11:39:05;;;;;;;3.80;2.20;;;2.70;54.00;;;;;;5035750;28;20021;-69
2021/01/10 11:41:31;;;;;;;3.28;2.00;;;2.60;53.50;;;;;;5036335;28;20075;-69
2021/01/10 11:43:57;;;;;;;3.92;2.28;;;2.60;54.20;;;;;;5036437;28;20349;-68
2021/01/10 11:46:23;;;;;;;3.75;2.50;;;2.60;56.00;;;;;;5037192;28;20033;-69
2021/01/10 11:48:49;;;;;;;3.50;2.40;;;2.60;56.00;;;;;;5036479;28;20028;-69
2021/01/10 11:51:16;;;;;;;3.35;2.20;;;2.60;52.90;;;;;;5036365;28;20025;-68
2021/01/10 11:53:42;;;;;;;3.00;2.20;;;2.60;51.00;;;;;;5036382;28;20017;-68
2021/01/10 11:56:08;;;;;;;3.15;2.40;;;2.60;53.00;;;;;;5036782;28;20026;-68
2021/01/10 11:58:37;;;;;;;3.70;2.63;;;2.60;51.90;;;;;;5037062;28;20029;-68
2021/01/10 12:01:02;;;;;;;2.78;2.00;;;2.60;51.70;;;;;;5040297;28;20417;-68
2021/01/10 12:03:28;;;;;;;6.28;3.25;;;2.60;52.60;;;;;;5040483;28;20021;-69
2021/01/10 12:05:54;;;;;;;3.83;3.10;;;2.60;52.70;;;;;;5040137;28;20315;-68
2021/01/10 12:08:22;;;;;;;5.93;3.08;;;2.60;54.10;;;;;;5040139;28;20056;-68
2021/01/10 12:10:48;;;;;;;4.35;2.88;;;2.60;54.00;;;;;;5040035;28;20091;-68
2021/01/10 12:13:14;;;;;;;4.15;2.83;;;2.60;54.10;;;;;;5040058;28;20033;-68
2021/01/10 12:15:41;;;;;;;4.03;2.67;;;2.70;55.90;;;;;;5040037;28;20043;-69
2021/01/10 12:18:07;;;;;;;3.70;2.25;;;2.80;54.40;;;;;;5039988;28;20080;-69
2021/01/10 12:20:34;;;;;;;4.05;2.65;;;2.90;55.10;;;;;;5039925;28;20029;-69
2021/01/10 12:23:01;;;;;;;4.40;3.20;;;2.90;54.80;;;;;;5040111;28;20031;-69
2021/01/10 12:25:26;;;;;;;4.18;2.55;;;2.80;52.50;;;;;;5039789;28;20341;-69
2021/01/10 12:27:52;;;;;;;5.10;2.60;;;2.90;53.10;;;;;;5039808;28;20097;-68
2021/01/10 12:30:19;;;;;;;3.10;2.25;;;2.90;54.10;;;;;;5039657;28;20038;-69
2021/01/10 12:32:45;;;;;;;3.90;2.17;;;3.00;54.20;;;;;;5040022;28;20018;-68
2021/01/10 12:35:15;;;;;;;3.15;2.30;;;3.00;54.00;;;;;;5039659;28;20099;-68
2021/01/10 12:37:41;;;;;;;3.30;2.13;;;3.00;51.90;;;;;;5039936;28;20017;-68
2021/01/10 12:40:08;;;;;;;4.82;2.42;;;3.00;53.30;;;;;;5039626;28;20092;-68
2021/01/10 12:42:34;;;;;;;4.15;2.38;;;3.10;54.20;;;;;;5039795;28;20047;-69
2021/01/10 12:45:01;;;;;;;3.22;2.00;;;3.10;52.20;;;;;;5039468;28;20096;-69
2021/01/10 12:47:27;;;;;;;3.25;2.47;;;3.00;51.20;;;;;;5039435;28;20049;-69
2021/01/10 12:49:53;;;;;;;4.15;2.30;;;3.00;52.30;;;;;;5039334;28;20072;-68
2021/01/10 12:52:18;;;;;;;4.65;2.08;;;3.00;52.50;;;;;;5039268;28;20029;-69
2021/01/10 12:54:44;;;;;;;2.80;1.80;;;2.90;52.70;;;;;;5039428;28;20101;-68
2021/01/10 12:57:10;;;;;;;2.40;1.70;;;2.90;52.40;;;;;;5039574;28;20341;-68
2021/01/10 12:59:35;;;;;;;2.70;1.88;;;3.00;51.30;;;;;;5039201;28;20029;-69
2021/01/10 13:02:01;;;;;;;2.42;1.70;;;3.00;50.70;;;;;;5039167;28;20321;-68
2021/01/10 13:04:27;;;;;;;2.72;1.98;;;3.10;49.30;;;;;;5039027;28;20413;-69
2021/01/10 13:06:58;;;;;;;2.40;1.88;;;3.10;49.80;;;;;;5039282;28;20104;-69
2021/01/10 13:09:24;;;;;;;2.58;1.70;;;3.20;51.20;;;;;;5038777;28;20325;-69